createdAt,value
2022-10-19T03:10:47.256Z,11.47
2022-10-19T03:13:49.700Z,11.47
2022-10-19T03:16:51.810Z,11.14
2022-10-19T03:19:54.133Z,11.26
2022-10-19T03:22:56.230Z,11.68
2022-10-19T03:25:58.589Z,11.83
2022-10-19T03:29:00.666Z,11.93
2022-10-19T03:32:03.428Z,11.95
2022-10-19T03:35:06.124Z,11.98
2022-10-19T03:38:08.448Z,12.03
2022-10-19T03:41:13.610Z,12.11
2022-10-19T03:44:15.928Z,12.11
2022-10-19T03:47:17.963Z,12.13
2022-10-19T03:50:21.144Z,12.10
2022-10-19T03:53:23.226Z,12.41
2022-10-19T03:56:27.580Z,12.36
2022-10-19T03:59:29.650Z,12.48
2022-10-19T04:02:31.966Z,12.95
2022-10-19T04:05:34.312Z,13.13
2022-10-19T04:08:36.380Z,13.10
2022-10-19T04:11:38.864Z,13.26
2022-10-19T04:14:56.206Z,13.30
2022-10-19T04:17:59.403Z,13.10
2022-10-19T04:21:03.945Z,13.01
2022-10-19T04:24:13.641Z,13.01
2022-10-19T04:27:15.702Z,12.88
2022-10-19T04:30:18.009Z,12.74
2022-10-19T04:33:20.212Z,12.55
2022-10-19T04:36:23.000Z,12.39
2022-10-19T04:39:25.031Z,12.43
2022-10-19T04:42:27.343Z,12.25
2022-10-19T04:45:29.393Z,12.22
2022-10-19T04:48:32.017Z,12.44
2022-10-19T04:51:34.599Z,12.51
2022-10-19T04:54:36.951Z,12.45
2022-10-19T04:57:39.000Z,12.33
2022-10-19T05:00:41.383Z,12.19
2022-10-19T05:03:44.423Z,12.00
2022-10-19T05:06:46.757Z,11.83
2022-10-19T05:09:48.833Z,11.67
2022-10-19T05:12:51.140Z,11.63
2022-10-19T05:15:58.049Z,11.55
2022-10-19T05:19:01.559Z,11.45
2022-10-19T05:22:03.672Z,11.48
2022-10-19T05:25:07.409Z,11.41
2022-10-19T05:28:09.440Z,11.63
2022-10-19T05:31:18.439Z,11.60
2022-10-19T05:34:20.612Z,11.78
2022-10-19T05:37:23.349Z,11.86
2022-10-19T05:40:25.624Z,12.05
2022-10-19T05:43:27.984Z,12.32
2022-10-19T05:46:31.097Z,12.64
2022-10-19T05:49:33.432Z,12.66
2022-10-19T05:52:35.491Z,12.64
2022-10-19T05:55:37.826Z,12.73
2022-10-19T05:58:40.427Z,12.91
2022-10-19T06:01:42.912Z,13.03
2022-10-19T06:04:45.282Z,13.06
2022-10-19T06:07:47.330Z,13.19
2022-10-19T06:10:50.249Z,13.37
2022-10-19T06:13:55.779Z,13.35
2022-10-19T06:16:58.110Z,13.36
2022-10-19T06:20:00.161Z,13.41
2022-10-19T06:23:02.583Z,13.63
2022-10-19T06:26:10.834Z,13.81
2022-10-19T06:29:13.149Z,13.99
2022-10-19T06:32:15.285Z,13.92
2022-10-19T06:35:18.027Z,13.90
2022-10-19T06:38:20.349Z,13.96
2022-10-19T06:41:23.564Z,13.93
2022-10-19T06:44:25.649Z,13.97
2022-10-19T06:47:33.218Z,14.04
2022-10-19T06:50:35.526Z,14.07
2022-10-19T06:53:37.946Z,14.13
2022-10-19T06:56:40.067Z,14.14
2022-10-19T06:59:42.415Z,14.21
2022-10-19T07:02:44.541Z,14.31
2022-10-19T07:05:53.607Z,14.52
2022-10-19T07:08:55.694Z,14.63
2022-10-19T07:11:57.987Z,14.66
2022-10-19T07:15:00.056Z,14.74
2022-10-19T07:18:02.382Z,15.01
2022-10-19T07:21:07.267Z,15.27
2022-10-19T07:24:09.874Z,15.49
2022-10-19T07:27:12.725Z,15.74
2022-10-19T07:30:15.445Z,15.79
2022-10-19T07:36:25.798Z,16.54
2022-10-19T07:39:27.882Z,16.79
2022-10-19T07:42:33.018Z,16.79
2022-10-19T07:45:35.162Z,16.53
2022-10-19T07:48:37.637Z,16.21
2022-10-19T07:51:40.395Z,16.01
2022-10-19T07:54:42.850Z,15.93
2022-10-19T07:57:49.219Z,15.98
2022-10-19T08:00:51.573Z,16.05
2022-10-19T08:07:18.021Z,16.30
2022-10-19T08:10:20.358Z,16.34
2022-10-19T08:13:23.585Z,16.43
2022-10-19T08:16:32.754Z,16.42
2022-10-19T08:19:35.280Z,16.65
2022-10-19T08:22:37.856Z,16.71
2022-10-19T08:25:39.947Z,16.90
2022-10-19T08:28:42.335Z,16.82
2022-10-19T08:31:46.350Z,16.87
2022-10-19T08:34:48.655Z,16.88
2022-10-19T08:37:51.002Z,16.98
2022-10-19T08:40:53.876Z,17.10
2022-10-19T08:43:59.162Z,17.40
2022-10-19T08:47:17.506Z,17.50
2022-10-19T08:50:24.512Z,17.64
2022-10-19T08:53:50.238Z,17.65
2022-10-19T08:57:22.393Z,17.55
2022-10-19T09:00:43.200Z,17.80
2022-10-19T09:04:07.377Z,18.01
2022-10-19T09:07:26.011Z,18.06
2022-10-19T09:10:40.611Z,18.07
2022-10-19T09:14:05.849Z,18.17
2022-10-19T09:17:15.341Z,18.07
2022-10-19T09:20:25.177Z,18.15
2022-10-19T09:23:42.606Z,18.50
2022-10-19T09:26:55.033Z,18.36
2022-10-19T09:30:01.194Z,18.39
2022-10-19T09:33:03.696Z,18.44
2022-10-19T09:36:07.838Z,18.92
2022-10-19T09:39:12.975Z,19.14
2022-10-19T09:42:33.201Z,19.27
2022-10-19T09:46:11.603Z,19.80
2022-10-19T09:49:37.563Z,20.24
2022-10-19T09:52:40.774Z,20.17
2022-10-19T09:55:44.100Z,20.16
2022-10-19T09:58:58.035Z,20.42
2022-10-19T10:02:11.480Z,20.68
2022-10-19T10:05:15.160Z,21.01
2022-10-19T10:08:25.593Z,21.09
2022-10-19T10:11:32.547Z,22.13
2022-10-19T10:14:39.833Z,23.01
2022-10-19T10:17:46.180Z,22.50
2022-10-19T10:21:12.097Z,21.49
2022-10-19T10:24:14.317Z,21.23
2022-10-19T10:27:30.080Z,21.82
2022-10-19T10:30:36.292Z,21.13
2022-10-19T10:33:46.160Z,23.32
2022-10-19T10:36:51.486Z,27.54
2022-10-19T10:39:57.905Z,32.75
2022-10-19T10:43:08.686Z,30.52
2022-10-19T10:46:19.675Z,29.46
2022-10-19T10:49:42.642Z,26.97
2022-10-19T10:53:00.866Z,27.51
2022-10-19T10:56:05.694Z,29.62
2022-10-19T10:59:26.436Z,33.64
2022-10-19T11:02:46.241Z,35.98
2022-10-19T11:05:53.218Z,35.45
2022-10-19T11:09:21.832Z,38.96
2022-10-19T11:12:35.797Z,41.43
2022-10-19T11:15:55.192Z,42.62
2022-10-19T11:19:06.719Z,41.31
2022-10-19T11:22:28.308Z,41.94
2022-10-19T11:25:35.869Z,40.27
2022-10-19T11:28:56.635Z,41.58
2022-10-19T11:31:58.718Z,35.88
2022-10-19T11:35:15.165Z,37.87
2022-10-19T11:38:20.863Z,36.09
2022-10-19T11:42:06.608Z,33.63
2022-10-19T11:45:48.584Z,31.87
2022-10-19T11:49:13.004Z,26.43
2022-10-19T11:52:27.315Z,22.82
2022-10-19T11:55:54.578Z,21.15
2022-10-19T11:59:21.630Z,20.21
2022-10-19T12:03:03.714Z,19.97
2022-10-19T12:06:31.990Z,19.97
2022-10-19T12:09:57.848Z,19.80
2022-10-19T12:13:08.878Z,19.53
2022-10-19T12:16:14.143Z,19.65
2022-10-19T12:19:19.414Z,19.48
2022-10-19T12:22:25.135Z,19.65
2022-10-19T12:25:28.022Z,19.27
2022-10-19T12:28:37.005Z,19.38
2022-10-19T12:31:40.432Z,19.34
2022-10-19T12:34:52.461Z,19.28
2022-10-19T12:38:00.445Z,19.00
2022-10-19T12:41:12.994Z,19.17
2022-10-19T12:44:18.883Z,19.14
2022-10-19T12:47:23.429Z,18.81
2022-10-19T12:50:48.555Z,18.71
2022-10-19T12:53:50.845Z,18.67
2022-10-19T12:56:55.500Z,18.59
2022-10-19T13:00:24.231Z,18.40
2022-10-19T13:03:41.172Z,18.73
2022-10-19T13:06:49.270Z,18.83
2022-10-19T13:10:01.422Z,18.65
2022-10-19T13:13:04.556Z,18.58
2022-10-19T13:16:28.792Z,18.54
2022-10-19T13:19:30.961Z,18.59
2022-10-19T13:22:33.732Z,18.42
2022-10-19T13:25:39.598Z,18.55
2022-10-19T13:28:53.296Z,18.54
2022-10-19T13:31:55.403Z,18.46
2022-10-19T13:35:29.426Z,18.51
2022-10-19T13:38:39.055Z,18.62
2022-10-19T13:41:47.115Z,18.64
2022-10-19T13:44:52.726Z,18.52
2022-10-19T13:48:08.522Z,18.39
2022-10-19T13:51:42.849Z,18.19
2022-10-19T13:54:45.067Z,18.15
2022-10-19T13:58:05.906Z,18.01
2022-10-19T14:01:33.203Z,17.99
2022-10-19T14:04:54.482Z,17.80
2022-10-19T14:08:10.162Z,17.86
2022-10-19T14:11:14.164Z,17.77
2022-10-19T14:14:20.111Z,17.42
2022-10-19T14:17:25.445Z,17.32
2022-10-19T14:20:33.555Z,17.30
2022-10-19T14:23:40.031Z,17.30
2022-10-19T14:26:42.155Z,17.19
2022-10-19T14:29:47.522Z,17.06
2022-10-19T14:32:49.823Z,17.10
2022-10-19T14:35:53.178Z,17.23
2022-10-19T14:38:56.295Z,16.97
2022-10-19T14:42:09.521Z,16.69
2022-10-19T14:45:19.827Z,16.51
2022-10-19T14:48:22.154Z,16.46
2022-10-19T14:51:43.095Z,16.26
2022-10-19T14:54:50.192Z,16.30
2022-10-19T14:57:53.773Z,16.02
2022-10-19T15:00:56.561Z,15.89
2022-10-19T15:03:58.776Z,15.80
2022-10-19T15:07:03.764Z,15.77
2022-10-19T15:10:16.541Z,15.63
2022-10-19T15:13:33.254Z,15.60
2022-10-19T15:16:58.171Z,15.42
